sensor_id;sensor_type;location;lat;lon;timestamp;temperature;humidity
54272;DHT22;40184;53.362;5.216;2023-03-01T00:01:25;6.50;99.90
54272;DHT22;40184;53.362;5.216;2023-03-01T00:03:51;6.30;99.90
54272;DHT22;40184;53.362;5.216;2023-03-01T00:06:18;6.40;99.90
54272;DHT22;40184;53.362;5.216;2023-03-01T00:08:44;6.40;99.90
54272;DHT22;40184;53.362;5.216;2023-03-01T00:11:13;6.50;99.90
54272;DHT22;40184;53.362;5.216;2023-03-01T00:13:40;6.30;99.90
54272;DHT22;40184;53.362;5.216;2023-03-01T00:16:09;6.30;99.90
54272;DHT22;40184;53.362;5.216;2023-03-01T00:18:34;6.50;99.90
54272;DHT22;40184;53.362;5.216;2023-03-01T00:21:00;6.60;99.90
54272;DHT22;40184;53.362;5.216;2023-03-01T00:23:26;6.40;99.90
54272;DHT22;40184;53.362;5.216;2023-03-01T00:25:52;6.60;99.90
54272;DHT22;40184;53.362;5.216;2023-03-01T00:28:18;6.60;99.90
54272;DHT22;40184;53.362;5.216;2023-03-01T00:30:44;6.50;99.90
54272;DHT22;40184;53.362;5.216;2023-03-01T00:33:10;6.60;99.90
54272;DHT22;40184;53.362;5.216;2023-03-01T00:35:36;6.50;99.90
54272;DHT22;40184;53.362;5.216;2023-03-01T00:38:03;6.70;99.90
54272;DHT22;40184;53.362;5.216;2023-03-01T00:40:30;6.70;99.90
54272;DHT22;40184;53.362;5.216;2023-03-01T00:42:57;6.50;99.90
54272;DHT22;40184;53.362;5.216;2023-03-01T00:45:22;6.70;99.90
54272;DHT22;40184;53.362;5.216;2023-03-01T00:47:49;6.80;99.90
54272;DHT22;40184;53.362;5.216;2023-03-01T00:50:16;6.40;99.90
54272;DHT22;40184;53.362;5.216;2023-03-01T00:52:42;6.60;99.90
54272;DHT22;40184;53.362;5.216;2023-03-01T00:55:07;6.60;99.90
54272;DHT22;40184;53.362;5.216;2023-03-01T00:57:33;6.50;99.90
54272;DHT22;40184;53.362;5.216;2023-03-01T00:59:59;6.80;99.90
54272;DHT22;40184;53.362;5.216;2023-03-01T01:02:25;6.70;99.90
54272;DHT22;40184;53.362;5.216;2023-03-01T01:04:51;6.80;99.90
54272;DHT22;40184;53.362;5.216;2023-03-01T01:07:17;6.70;99.90
54272;DHT22;40184;53.362;5.216;2023-03-01T01:09:43;6.60;99.90
54272;DHT22;40184;53.362;5.216;2023-03-01T01:12:09;6.80;99.90
54272;DHT22;40184;53.362;5.216;2023-03-01T01:14:35;6.50;99.90
54272;DHT22;40184;53.362;5.216;2023-03-01T01:17:01;6.60;99.90
54272;DHT22;40184;53.362;5.216;2023-03-01T01:19:27;6.70;99.90
54272;DHT22;40184;53.362;5.216;2023-03-01T01:21:53;6.70;99.90
54272;DHT22;40184;53.362;5.216;2023-03-01T01:24:19;6.80;99.90
54272;DHT22;40184;53.362;5.216;2023-03-01T01:26:45;6.50;99.90
54272;DHT22;40184;53.362;5.216;2023-03-01T01:29:11;6.60;99.90
54272;DHT22;40184;53.362;5.216;2023-03-01T01:31:39;6.80;99.90
54272;DHT22;40184;53.362;5.216;2023-03-01T01:34:06;6.70;99.90
54272;DHT22;40184;53.362;5.216;2023-03-01T01:36:33;6.60;99.90
54272;DHT22;40184;53.362;5.216;2023-03-01T01:38:59;6.80;99.90
54272;DHT22;40184;53.362;5.216;2023-03-01T01:41:28;6.60;99.90
54272;DHT22;40184;53.362;5.216;2023-03-01T01:46:49;6.50;99.90
54272;DHT22;40184;53.362;5.216;2023-03-01T01:49:38;6.60;99.90
54272;DHT22;40184;53.362;5.216;2023-03-01T01:52:27;6.70;99.90
54272;DHT22;40184;53.362;5.216;2023-03-01T01:55:09;6.70;99.90
54272;DHT22;40184;53.362;5.216;2023-03-01T01:57:48;6.50;99.90
54272;DHT22;40184;53.362;5.216;2023-03-01T02:00:17;6.50;99.90
54272;DHT22;40184;53.362;5.216;2023-03-01T02:02:45;6.60;99.90
54272;DHT22;40184;53.362;5.216;2023-03-01T02:08:03;6.70;99.90
54272;DHT22;40184;53.362;5.216;2023-03-01T02:10:29;6.70;99.90
54272;DHT22;40184;53.362;5.216;2023-03-01T02:12:58;6.70;99.90
54272;DHT22;40184;53.362;5.216;2023-03-01T02:15:25;6.70;99.90
54272;DHT22;40184;53.362;5.216;2023-03-01T02:17:52;6.70;99.90
54272;DHT22;40184;53.362;5.216;2023-03-01T02:23:18;6.60;99.90
54272;DHT22;40184;53.362;5.216;2023-03-01T02:25:51;6.50;99.90
54272;DHT22;40184;53.362;5.216;2023-03-01T02:28:33;6.60;99.90
54272;DHT22;40184;53.362;5.216;2023-03-01T02:31:01;6.40;99.90
54272;DHT22;40184;53.362;5.216;2023-03-01T02:33:46;6.70;99.90
54272;DHT22;40184;53.362;5.216;2023-03-01T02:36:23;6.60;99.90
54272;DHT22;40184;53.362;5.216;2023-03-01T02:38:52;6.60;99.90
54272;DHT22;40184;53.362;5.216;2023-03-01T02:41:20;6.40;99.90
54272;DHT22;40184;53.362;5.216;2023-03-01T02:43:47;6.60;99.90
54272;DHT22;40184;53.362;5.216;2023-03-01T02:46:17;6.40;99.90
54272;DHT22;40184;53.362;5.216;2023-03-01T02:48:46;6.50;99.90
54272;DHT22;40184;53.362;5.216;2023-03-01T02:54:22;6.60;99.90
54272;DHT22;40184;53.362;5.216;2023-03-01T02:56:50;6.70;99.90
54272;DHT22;40184;53.362;5.216;2023-03-01T02:59:21;6.50;99.90
54272;DHT22;40184;53.362;5.216;2023-03-01T03:01:47;6.40;99.90
54272;DHT22;40184;53.362;5.216;2023-03-01T03:04:16;6.60;99.90
54272;DHT22;40184;53.362;5.216;2023-03-01T03:06:47;6.50;99.90
54272;DHT22;40184;53.362;5.216;2023-03-01T03:09:13;6.60;99.90
54272;DHT22;40184;53.362;5.216;2023-03-01T03:11:39;6.50;99.90
54272;DHT22;40184;53.362;5.216;2023-03-01T03:14:07;6.80;99.90
54272;DHT22;40184;53.362;5.216;2023-03-01T03:16:48;6.60;99.90
54272;DHT22;40184;53.362;5.216;2023-03-01T03:19:15;6.60;99.90
54272;DHT22;40184;53.362;5.216;2023-03-01T03:21:42;6.60;99.90
54272;DHT22;40184;53.362;5.216;2023-03-01T03:24:08;6.40;99.90
54272;DHT22;40184;53.362;5.216;2023-03-01T03:26:33;6.60;99.90
54272;DHT22;40184;53.362;5.216;2023-03-01T03:28:59;6.40;99.90
54272;DHT22;40184;53.362;5.216;2023-03-01T03:31:25;6.70;99.90
54272;DHT22;40184;53.362;5.216;2023-03-01T03:33:51;6.70;99.90
54272;DHT22;40184;53.362;5.216;2023-03-01T03:36:18;6.80;99.90
54272;DHT22;40184;53.362;5.216;2023-03-01T03:38:45;6.70;99.90
54272;DHT22;40184;53.362;5.216;2023-03-01T03:41:12;6.50;99.90
54272;DHT22;40184;53.362;5.216;2023-03-01T03:43:40;6.60;99.90
54272;DHT22;40184;53.362;5.216;2023-03-01T03:46:06;6.80;99.90
54272;DHT22;40184;53.362;5.216;2023-03-01T03:48:38;6.50;99.90
54272;DHT22;40184;53.362;5.216;2023-03-01T03:51:04;6.80;99.90
54272;DHT22;40184;53.362;5.216;2023-03-01T03:53:32;6.60;99.90
54272;DHT22;40184;53.362;5.216;2023-03-01T03:55:58;6.80;99.90
54272;DHT22;40184;53.362;5.216;2023-03-01T03:58:25;6.70;99.90
54272;DHT22;40184;53.362;5.216;2023-03-01T04:00:55;6.60;99.90
54272;DHT22;40184;53.362;5.216;2023-03-01T04:03:22;6.50;99.90
54272;DHT22;40184;53.362;5.216;2023-03-01T04:05:49;6.50;99.90
54272;DHT22;40184;53.362;5.216;2023-03-01T04:08:20;6.60;99.90
54272;DHT22;40184;53.362;5.216;2023-03-01T04:10:48;6.70;99.90
54272;DHT22;40184;53.362;5.216;2023-03-01T04:13:17;6.60;99.90
54272;DHT22;40184;53.362;5.216;2023-03-01T04:15:51;6.70;99.90
54272;DHT22;40184;53.362;5.216;2023-03-01T04:18:19;6.50;99.90
54272;DHT22;40184;53.362;5.216;2023-03-01T04:20:46;6.80;99.90
54272;DHT22;40184;53.362;5.216;2023-03-01T04:23:19;6.50;99.90
54272;DHT22;40184;53.362;5.216;2023-03-01T04:25:49;6.80;99.90
54272;DHT22;40184;53.362;5.216;2023-03-01T04:28:26;6.60;99.90
54272;DHT22;40184;53.362;5.216;2023-03-01T04:30:55;6.60;99.90
54272;DHT22;40184;53.362;5.216;2023-03-01T04:33:21;6.70;99.90
54272;DHT22;40184;53.362;5.216;2023-03-01T04:35:47;6.40;99.90
54272;DHT22;40184;53.362;5.216;2023-03-01T04:38:19;6.50;99.90
54272;DHT22;40184;53.362;5.216;2023-03-01T04:40:45;6.60;99.90
54272;DHT22;40184;53.362;5.216;2023-03-01T04:43:11;6.50;99.90
54272;DHT22;40184;53.362;5.216;2023-03-01T04:45:39;6.60;99.90
54272;DHT22;40184;53.362;5.216;2023-03-01T04:48:05;6.50;99.90
54272;DHT22;40184;53.362;5.216;2023-03-01T04:50:30;6.40;99.90
54272;DHT22;40184;53.362;5.216;2023-03-01T04:52:56;6.70;99.90
54272;DHT22;40184;53.362;5.216;2023-03-01T04:55:28;6.60;99.90
54272;DHT22;40184;53.362;5.216;2023-03-01T04:57:54;6.50;99.90
54272;DHT22;40184;53.362;5.216;2023-03-01T05:00:21;6.80;99.90
54272;DHT22;40184;53.362;5.216;2023-03-01T05:07:52;6.60;99.90
54272;DHT22;40184;53.362;5.216;2023-03-01T05:10:17;6.80;99.90
54272;DHT22;40184;53.362;5.216;2023-03-01T05:12:43;6.70;99.90
54272;DHT22;40184;53.362;5.216;2023-03-01T05:15:09;6.60;99.90
54272;DHT22;40184;53.362;5.216;2023-03-01T05:17:35;6.60;99.90
54272;DHT22;40184;53.362;5.216;2023-03-01T05:20:01;6.70;99.90
54272;DHT22;40184;53.362;5.216;2023-03-01T05:22:28;6.70;99.90
54272;DHT22;40184;53.362;5.216;2023-03-01T05:24:54;6.90;99.90
54272;DHT22;40184;53.362;5.216;2023-03-01T05:27:20;6.70;99.90
54272;DHT22;40184;53.362;5.216;2023-03-01T05:29:48;6.50;99.90
54272;DHT22;40184;53.362;5.216;2023-03-01T05:32:13;6.70;99.90
54272;DHT22;40184;53.362;5.216;2023-03-01T05:34:41;6.40;99.90
54272;DHT22;40184;53.362;5.216;2023-03-01T05:37:07;6.50;99.90
54272;DHT22;40184;53.362;5.216;2023-03-01T05:39:34;6.60;99.90
54272;DHT22;40184;53.362;5.216;2023-03-01T05:42:01;6.70;99.90
54272;DHT22;40184;53.362;5.216;2023-03-01T05:44:28;6.70;99.90
54272;DHT22;40184;53.362;5.216;2023-03-01T05:46:54;6.60;99.90
54272;DHT22;40184;53.362;5.216;2023-03-01T05:49:20;6.60;99.90
54272;DHT22;40184;53.362;5.216;2023-03-01T05:51:51;6.40;99.90
54272;DHT22;40184;53.362;5.216;2023-03-01T05:54:17;6.40;99.90
54272;DHT22;40184;53.362;5.216;2023-03-01T05:56:43;6.60;99.90
54272;DHT22;40184;53.362;5.216;2023-03-01T05:59:10;6.70;99.90
54272;DHT22;40184;53.362;5.216;2023-03-01T06:01:37;6.50;99.90
54272;DHT22;40184;53.362;5.216;2023-03-01T06:04:03;6.50;99.90
54272;DHT22;40184;53.362;5.216;2023-03-01T06:06:33;6.50;99.90
54272;DHT22;40184;53.362;5.216;2023-03-01T06:08:58;6.70;99.90
54272;DHT22;40184;53.362;5.216;2023-03-01T06:11:24;6.50;99.90
54272;DHT22;40184;53.362;5.216;2023-03-01T06:13:50;6.40;99.90
54272;DHT22;40184;53.362;5.216;2023-03-01T06:16:15;6.60;99.90
54272;DHT22;40184;53.362;5.216;2023-03-01T06:18:41;6.40;99.90
54272;DHT22;40184;53.362;5.216;2023-03-01T06:21:08;6.60;99.90
54272;DHT22;40184;53.362;5.216;2023-03-01T06:23:34;6.60;99.90
54272;DHT22;40184;53.362;5.216;2023-03-01T06:26:04;6.70;99.90
54272;DHT22;40184;53.362;5.216;2023-03-01T06:28:31;6.70;99.90
54272;DHT22;40184;53.362;5.216;2023-03-01T06:30:56;6.30;98.90
54272;DHT22;40184;53.362;5.216;2023-03-01T06:33:22;6.60;97.40
54272;DHT22;40184;53.362;5.216;2023-03-01T06:35:50;6.50;92.20
54272;DHT22;40184;53.362;5.216;2023-03-01T06:38:16;6.30;74.30
54272;DHT22;40184;53.362;5.216;2023-03-01T06:40:44;6.30;58.40
54272;DHT22;40184;53.362;5.216;2023-03-01T06:43:10;6.50;47.30
54272;DHT22;40184;53.362;5.216;2023-03-01T06:45:37;6.30;24.40
54272;DHT22;40184;53.362;5.216;2023-03-01T06:48:06;6.30;11.00
54272;DHT22;40184;53.362;5.216;2023-03-01T06:50:32;6.30;2.30
54272;DHT22;40184;53.362;5.216;2023-03-01T06:52:58;6.10;1.00
54272;DHT22;40184;53.362;5.216;2023-03-01T06:55:24;6.40;1.00
54272;DHT22;40184;53.362;5.216;2023-03-01T06:57:55;6.20;1.00
54272;DHT22;40184;53.362;5.216;2023-03-01T07:00:22;6.00;1.00
54272;DHT22;40184;53.362;5.216;2023-03-01T07:02:48;6.20;1.00
54272;DHT22;40184;53.362;5.216;2023-03-01T07:05:13;6.00;1.00
54272;DHT22;40184;53.362;5.216;2023-03-01T07:07:39;6.00;1.00
54272;DHT22;40184;53.362;5.216;2023-03-01T07:10:05;5.90;1.00
54272;DHT22;40184;53.362;5.216;2023-03-01T07:12:32;6.00;1.00
54272;DHT22;40184;53.362;5.216;2023-03-01T07:14:57;6.10;1.00
54272;DHT22;40184;53.362;5.216;2023-03-01T07:17:23;6.10;1.00
54272;DHT22;40184;53.362;5.216;2023-03-01T07:19:49;6.20;1.00
54272;DHT22;40184;53.362;5.216;2023-03-01T07:22:14;6.00;1.00
54272;DHT22;40184;53.362;5.216;2023-03-01T07:24:41;6.10;1.00
54272;DHT22;40184;53.362;5.216;2023-03-01T07:27:07;6.10;1.00
54272;DHT22;40184;53.362;5.216;2023-03-01T07:29:32;6.20;1.00
54272;DHT22;40184;53.362;5.216;2023-03-01T07:31:58;6.20;1.00
54272;DHT22;40184;53.362;5.216;2023-03-01T07:34:24;6.30;1.00
54272;DHT22;40184;53.362;5.216;2023-03-01T07:36:50;6.00;1.00
54272;DHT22;40184;53.362;5.216;2023-03-01T07:39:15;6.20;1.00
54272;DHT22;40184;53.362;5.216;2023-03-01T07:41:41;6.10;1.00
54272;DHT22;40184;53.362;5.216;2023-03-01T07:44:07;6.30;1.00
54272;DHT22;40184;53.362;5.216;2023-03-01T07:46:32;6.40;1.00
54272;DHT22;40184;53.362;5.216;2023-03-01T07:48:58;6.50;1.00
54272;DHT22;40184;53.362;5.216;2023-03-01T07:51:24;6.50;1.00
54272;DHT22;40184;53.362;5.216;2023-03-01T07:53:49;6.60;1.00
54272;DHT22;40184;53.362;5.216;2023-03-01T07:56:16;6.40;1.00
54272;DHT22;40184;53.362;5.216;2023-03-01T07:58:44;6.70;1.00
54272;DHT22;40184;53.362;5.216;2023-03-01T08:01:12;6.60;1.00
54272;DHT22;40184;53.362;5.216;2023-03-01T08:03:39;6.40;1.00
54272;DHT22;40184;53.362;5.216;2023-03-01T08:06:07;6.80;1.00
54272;DHT22;40184;53.362;5.216;2023-03-01T08:08:33;6.70;11.20
54272;DHT22;40184;53.362;5.216;2023-03-01T08:11:00;6.90;16.20
54272;DHT22;40184;53.362;5.216;2023-03-01T08:13:26;6.70;8.30
54272;DHT22;40184;53.362;5.216;2023-03-01T08:15:52;6.90;6.70
54272;DHT22;40184;53.362;5.216;2023-03-01T08:18:19;6.80;1.00
54272;DHT22;40184;53.362;5.216;2023-03-01T08:20:45;6.80;1.00
54272;DHT22;40184;53.362;5.216;2023-03-01T08:23:11;6.80;1.00
54272;DHT22;40184;53.362;5.216;2023-03-01T08:25:38;7.00;1.00
54272;DHT22;40184;53.362;5.216;2023-03-01T08:28:04;7.10;1.00
54272;DHT22;40184;53.362;5.216;2023-03-01T08:30:30;7.10;1.00
54272;DHT22;40184;53.362;5.216;2023-03-01T08:32:55;7.00;1.00
54272;DHT22;40184;53.362;5.216;2023-03-01T08:35:21;7.00;1.00
54272;DHT22;40184;53.362;5.216;2023-03-01T08:37:47;7.10;1.00
54272;DHT22;40184;53.362;5.216;2023-03-01T08:40:13;7.10;1.00
54272;DHT22;40184;53.362;5.216;2023-03-01T08:42:42;7.30;1.00
54272;DHT22;40184;53.362;5.216;2023-03-01T08:45:10;7.20;1.00
54272;DHT22;40184;53.362;5.216;2023-03-01T08:47:36;7.20;1.00
54272;DHT22;40184;53.362;5.216;2023-03-01T08:50:03;7.40;1.00
54272;DHT22;40184;53.362;5.216;2023-03-01T08:52:28;7.30;1.00
54272;DHT22;40184;53.362;5.216;2023-03-01T08:54:55;7.60;1.00
54272;DHT22;40184;53.362;5.216;2023-03-01T08:57:21;7.50;13.70
54272;DHT22;40184;53.362;5.216;2023-03-01T08:59:47;7.90;14.60
54272;DHT22;40184;53.362;5.216;2023-03-01T09:02:15;7.60;10.70
54272;DHT22;40184;53.362;5.216;2023-03-01T09:04:41;7.80;7.40
54272;DHT22;40184;53.362;5.216;2023-03-01T09:07:08;7.70;1.00
54272;DHT22;40184;53.362;5.216;2023-03-01T09:09:34;7.80;1.00
54272;DHT22;40184;53.362;5.216;2023-03-01T09:12:00;8.00;1.00
54272;DHT22;40184;53.362;5.216;2023-03-01T09:14:26;8.00;1.00
54272;DHT22;40184;53.362;5.216;2023-03-01T09:16:51;8.00;1.00
54272;DHT22;40184;53.362;5.216;2023-03-01T09:19:17;8.10;1.00
54272;DHT22;40184;53.362;5.216;2023-03-01T09:21:43;8.20;1.00
54272;DHT22;40184;53.362;5.216;2023-03-01T09:24:19;8.30;6.10
54272;DHT22;40184;53.362;5.216;2023-03-01T09:26:45;8.20;1.00
54272;DHT22;40184;53.362;5.216;2023-03-01T09:29:11;8.30;1.00
54272;DHT22;40184;53.362;5.216;2023-03-01T09:31:38;8.30;1.00
54272;DHT22;40184;53.362;5.216;2023-03-01T09:34:04;8.40;1.00
54272;DHT22;40184;53.362;5.216;2023-03-01T09:36:30;8.70;1.00
54272;DHT22;40184;53.362;5.216;2023-03-01T09:38:56;8.30;1.00
54272;DHT22;40184;53.362;5.216;2023-03-01T09:44:08;8.70;1.00
54272;DHT22;40184;53.362;5.216;2023-03-01T09:46:43;8.90;1.00
54272;DHT22;40184;53.362;5.216;2023-03-01T09:49:18;8.70;1.00
54272;DHT22;40184;53.362;5.216;2023-03-01T09:54:37;8.90;1.00
54272;DHT22;40184;53.362;5.216;2023-03-01T09:57:19;8.80;1.00
54272;DHT22;40184;53.362;5.216;2023-03-01T10:02:51;8.90;1.00
54272;DHT22;40184;53.362;5.216;2023-03-01T10:05:40;9.30;1.00
54272;DHT22;40184;53.362;5.216;2023-03-01T10:10:51;9.20;1.00
54272;DHT22;40184;53.362;5.216;2023-03-01T10:13:44;9.30;1.00
54272;DHT22;40184;53.362;5.216;2023-03-01T10:16:18;9.20;1.00
54272;DHT22;40184;53.362;5.216;2023-03-01T10:18:51;9.30;99.90
54272;DHT22;40184;53.362;5.216;2023-03-01T10:21:20;9.20;1.00
54272;DHT22;40184;53.362;5.216;2023-03-01T10:23:50;9.30;1.00
54272;DHT22;40184;53.362;5.216;2023-03-01T10:29:06;9.60;99.90
54272;DHT22;40184;53.362;5.216;2023-03-01T10:34:11;9.20;99.90
54272;DHT22;40184;53.362;5.216;2023-03-01T10:36:39;9.60;99.90
54272;DHT22;40184;53.362;5.216;2023-03-01T10:39:17;9.50;99.90
54272;DHT22;40184;53.362;5.216;2023-03-01T10:42:31;9.70;99.90
54272;DHT22;40184;53.362;5.216;2023-03-01T10:44:58;9.80;99.90
54272;DHT22;40184;53.362;5.216;2023-03-01T10:47:39;9.70;99.90
54272;DHT22;40184;53.362;5.216;2023-03-01T10:50:06;9.40;99.90
54272;DHT22;40184;53.362;5.216;2023-03-01T10:52:56;9.60;99.90
54272;DHT22;40184;53.362;5.216;2023-03-01T10:55:33;9.40;99.90
54272;DHT22;40184;53.362;5.216;2023-03-01T10:58:26;9.60;99.90
54272;DHT22;40184;53.362;5.216;2023-03-01T11:00:54;9.90;99.90
54272;DHT22;40184;53.362;5.216;2023-03-01T11:06:00;9.50;99.90
54272;DHT22;40184;53.362;5.216;2023-03-01T11:13:51;9.70;96.20
54272;DHT22;40184;53.362;5.216;2023-03-01T11:16:33;9.80;95.60
54272;DHT22;40184;53.362;5.216;2023-03-01T11:24:38;10.20;20.50
54272;DHT22;40184;53.362;5.216;2023-03-01T11:30:05;10.50;1.00
54272;DHT22;40184;53.362;5.216;2023-03-01T11:32:47;10.50;1.00
54272;DHT22;40184;53.362;5.216;2023-03-01T11:35:22;10.70;1.00
54272;DHT22;40184;53.362;5.216;2023-03-01T11:45:19;11.70;1.00
54272;DHT22;40184;53.362;5.216;2023-03-01T11:48:06;11.80;1.00
54272;DHT22;40184;53.362;5.216;2023-03-01T11:50:45;12.60;1.00
54272;DHT22;40184;53.362;5.216;2023-03-01T12:01:15;14.40;99.90
54272;DHT22;40184;53.362;5.216;2023-03-01T12:22:28;15.10;89.90
54272;DHT22;40184;53.362;5.216;2023-03-01T12:34:06;15.50;11.90
54272;DHT22;40184;53.362;5.216;2023-03-01T12:49:45;15.00;1.00
54272;DHT22;40184;53.362;5.216;2023-03-01T12:52:19;15.00;1.00
54272;DHT22;40184;53.362;5.216;2023-03-01T12:54:49;15.00;1.00
54272;DHT22;40184;53.362;5.216;2023-03-01T12:57:38;15.20;99.90
54272;DHT22;40184;53.362;5.216;2023-03-01T13:00:20;15.10;99.90
54272;DHT22;40184;53.362;5.216;2023-03-01T13:02:54;15.10;99.90
54272;DHT22;40184;53.362;5.216;2023-03-01T13:05:31;15.30;99.90
54272;DHT22;40184;53.362;5.216;2023-03-01T13:10:53;15.10;99.90
54272;DHT22;40184;53.362;5.216;2023-03-01T13:13:26;15.50;99.90
54272;DHT22;40184;53.362;5.216;2023-03-01T13:15:52;15.40;99.90
54272;DHT22;40184;53.362;5.216;2023-03-01T13:20:50;15.10;99.90
54272;DHT22;40184;53.362;5.216;2023-03-01T13:31:05;11.20;99.90
54272;DHT22;40184;53.362;5.216;2023-03-01T13:35:59;9.90;1.00
54272;DHT22;40184;53.362;5.216;2023-03-01T13:39:27;9.50;1.00
54272;DHT22;40184;53.362;5.216;2023-03-01T13:49:59;8.60;1.00
54272;DHT22;40184;53.362;5.216;2023-03-01T13:57:42;8.20;1.00
54272;DHT22;40184;53.362;5.216;2023-03-01T14:00:37;8.20;1.00
54272;DHT22;40184;53.362;5.216;2023-03-01T14:03:16;8.10;1.00
54272;DHT22;40184;53.362;5.216;2023-03-01T14:05:57;8.10;1.00
54272;DHT22;40184;53.362;5.216;2023-03-01T14:08:26;8.10;1.00
54272;DHT22;40184;53.362;5.216;2023-03-01T14:11:21;8.10;1.00
54272;DHT22;40184;53.362;5.216;2023-03-01T14:14:07;8.10;1.00
54272;DHT22;40184;53.362;5.216;2023-03-01T14:16:40;8.10;1.00
54272;DHT22;40184;53.362;5.216;2023-03-01T14:19:18;8.20;1.00
54272;DHT22;40184;53.362;5.216;2023-03-01T14:21:46;8.10;1.00
54272;DHT22;40184;53.362;5.216;2023-03-01T14:24:22;8.10;1.00
54272;DHT22;40184;53.362;5.216;2023-03-01T14:26:49;8.10;1.00
54272;DHT22;40184;53.362;5.216;2023-03-01T14:29:35;8.10;1.00
54272;DHT22;40184;53.362;5.216;2023-03-01T14:32:15;8.10;1.00
54272;DHT22;40184;53.362;5.216;2023-03-01T14:34:48;8.10;1.00
54272;DHT22;40184;53.362;5.216;2023-03-01T14:39:52;8.10;1.00
54272;DHT22;40184;53.362;5.216;2023-03-01T14:42:20;8.10;1.00
54272;DHT22;40184;53.362;5.216;2023-03-01T14:44:51;8.20;1.00
54272;DHT22;40184;53.362;5.216;2023-03-01T14:47:32;8.20;1.00
54272;DHT22;40184;53.362;5.216;2023-03-01T14:50:07;8.00;1.00
54272;DHT22;40184;53.362;5.216;2023-03-01T14:52:38;8.00;1.00
54272;DHT22;40184;53.362;5.216;2023-03-01T14:55:07;8.00;1.00
54272;DHT22;40184;53.362;5.216;2023-03-01T14:57:43;8.00;1.00
54272;DHT22;40184;53.362;5.216;2023-03-01T15:00:18;7.90;1.00
54272;DHT22;40184;53.362;5.216;2023-03-01T15:02:47;7.90;1.00
54272;DHT22;40184;53.362;5.216;2023-03-01T15:05:14;7.80;1.00
54272;DHT22;40184;53.362;5.216;2023-03-01T15:07:42;7.90;1.00
54272;DHT22;40184;53.362;5.216;2023-03-01T15:10:29;7.90;1.00
54272;DHT22;40184;53.362;5.216;2023-03-01T15:12:55;7.90;1.00
54272;DHT22;40184;53.362;5.216;2023-03-01T15:15:37;7.90;1.00
54272;DHT22;40184;53.362;5.216;2023-03-01T15:18:27;8.00;1.00
54272;DHT22;40184;53.362;5.216;2023-03-01T15:20:53;8.00;1.00
54272;DHT22;40184;53.362;5.216;2023-03-01T15:23:29;8.00;1.00
54272;DHT22;40184;53.362;5.216;2023-03-01T15:25:56;8.00;1.00
54272;DHT22;40184;53.362;5.216;2023-03-01T15:28:31;7.90;15.00
54272;DHT22;40184;53.362;5.216;2023-03-01T15:31:13;7.90;22.70
54272;DHT22;40184;53.362;5.216;2023-03-01T15:33:43;7.90;32.00
54272;DHT22;40184;53.362;5.216;2023-03-01T15:36:35;7.90;46.40
54272;DHT22;40184;53.362;5.216;2023-03-01T15:39:02;7.90;34.10
54272;DHT22;40184;53.362;5.216;2023-03-01T15:41:47;7.90;52.90
54272;DHT22;40184;53.362;5.216;2023-03-01T15:44:26;7.70;58.40
54272;DHT22;40184;53.362;5.216;2023-03-01T15:46:52;7.80;67.00
54272;DHT22;40184;53.362;5.216;2023-03-01T15:52:01;7.70;89.10
54272;DHT22;40184;53.362;5.216;2023-03-01T15:54:27;7.60;95.70
54272;DHT22;40184;53.362;5.216;2023-03-01T15:56:54;7.60;99.20
54272;DHT22;40184;53.362;5.216;2023-03-01T15:59:19;7.60;99.90
54272;DHT22;40184;53.362;5.216;2023-03-01T16:01:47;7.60;99.90
54272;DHT22;40184;53.362;5.216;2023-03-01T16:04:16;7.60;96.90
54272;DHT22;40184;53.362;5.216;2023-03-01T16:06:53;7.50;93.30
54272;DHT22;40184;53.362;5.216;2023-03-01T16:09:25;7.40;99.90
54272;DHT22;40184;53.362;5.216;2023-03-01T16:11:52;7.50;99.90
54272;DHT22;40184;53.362;5.216;2023-03-01T16:14:18;7.40;99.90
54272;DHT22;40184;53.362;5.216;2023-03-01T16:16:45;7.40;99.90
54272;DHT22;40184;53.362;5.216;2023-03-01T16:19:11;7.30;99.90
54272;DHT22;40184;53.362;5.216;2023-03-01T16:21:37;7.30;99.90
54272;DHT22;40184;53.362;5.216;2023-03-01T16:24:03;7.20;99.90
54272;DHT22;40184;53.362;5.216;2023-03-01T16:26:29;7.20;99.90
54272;DHT22;40184;53.362;5.216;2023-03-01T16:28:56;7.20;99.90
54272;DHT22;40184;53.362;5.216;2023-03-01T16:31:23;7.00;99.90
54272;DHT22;40184;53.362;5.216;2023-03-01T16:33:49;7.00;99.90
54272;DHT22;40184;53.362;5.216;2023-03-01T16:36:18;6.90;99.90
54272;DHT22;40184;53.362;5.216;2023-03-01T16:38:44;6.90;99.90
54272;DHT22;40184;53.362;5.216;2023-03-01T16:41:15;6.80;99.90
54272;DHT22;40184;53.362;5.216;2023-03-01T16:43:41;6.80;99.90
54272;DHT22;40184;53.362;5.216;2023-03-01T16:46:19;6.80;99.90
54272;DHT22;40184;53.362;5.216;2023-03-01T16:48:46;6.70;99.90
54272;DHT22;40184;53.362;5.216;2023-03-01T16:51:12;6.70;99.90
54272;DHT22;40184;53.362;5.216;2023-03-01T16:53:38;6.70;99.90
54272;DHT22;40184;53.362;5.216;2023-03-01T16:56:06;6.70;99.90
54272;DHT22;40184;53.362;5.216;2023-03-01T16:58:36;6.60;99.90
54272;DHT22;40184;53.362;5.216;2023-03-01T17:01:11;6.60;99.90
54272;DHT22;40184;53.362;5.216;2023-03-01T17:03:38;6.50;99.90
54272;DHT22;40184;53.362;5.216;2023-03-01T17:06:06;6.60;99.90
54272;DHT22;40184;53.362;5.216;2023-03-01T17:08:32;6.50;99.90
54272;DHT22;40184;53.362;5.216;2023-03-01T17:11:09;6.50;99.90
54272;DHT22;40184;53.362;5.216;2023-03-01T17:13:36;6.60;99.90
54272;DHT22;40184;53.362;5.216;2023-03-01T17:16:10;6.50;99.90
54272;DHT22;40184;53.362;5.216;2023-03-01T17:18:36;6.40;99.90
54272;DHT22;40184;53.362;5.216;2023-03-01T17:21:03;6.40;99.90
54272;DHT22;40184;53.362;5.216;2023-03-01T17:23:30;6.40;99.90
54272;DHT22;40184;53.362;5.216;2023-03-01T17:25:56;6.40;99.90
54272;DHT22;40184;53.362;5.216;2023-03-01T17:28:23;6.40;99.90
54272;DHT22;40184;53.362;5.216;2023-03-01T17:30:49;6.30;99.90
54272;DHT22;40184;53.362;5.216;2023-03-01T17:33:16;6.20;99.90
54272;DHT22;40184;53.362;5.216;2023-03-01T17:35:42;6.20;99.90
54272;DHT22;40184;53.362;5.216;2023-03-01T17:38:10;6.30;99.90
54272;DHT22;40184;53.362;5.216;2023-03-01T17:40:36;6.20;99.90
54272;DHT22;40184;53.362;5.216;2023-03-01T17:43:02;6.10;99.90
54272;DHT22;40184;53.362;5.216;2023-03-01T17:45:28;6.00;99.90
54272;DHT22;40184;53.362;5.216;2023-03-01T17:47:54;6.00;1.00
54272;DHT22;40184;53.362;5.216;2023-03-01T17:50:20;6.20;1.00
54272;DHT22;40184;53.362;5.216;2023-03-01T17:52:45;6.10;1.00
54272;DHT22;40184;53.362;5.216;2023-03-01T17:55:11;5.90;1.00
54272;DHT22;40184;53.362;5.216;2023-03-01T17:57:38;6.00;1.00
54272;DHT22;40184;53.362;5.216;2023-03-01T18:00:06;6.00;1.00
54272;DHT22;40184;53.362;5.216;2023-03-01T18:02:32;5.90;1.00
54272;DHT22;40184;53.362;5.216;2023-03-01T18:04:57;5.80;1.00
54272;DHT22;40184;53.362;5.216;2023-03-01T18:07:26;5.90;1.00
54272;DHT22;40184;53.362;5.216;2023-03-01T18:09:51;5.70;26.20
54272;DHT22;40184;53.362;5.216;2023-03-01T18:12:17;6.00;23.10
54272;DHT22;40184;53.362;5.216;2023-03-01T18:14:43;6.00;26.00
54272;DHT22;40184;53.362;5.216;2023-03-01T18:17:09;5.70;24.90
54272;DHT22;40184;53.362;5.216;2023-03-01T18:19:40;5.80;57.40
54272;DHT22;40184;53.362;5.216;2023-03-01T18:22:09;5.80;94.80
54272;DHT22;40184;53.362;5.216;2023-03-01T18:24:36;5.60;96.60